Time;durP1;ratioP1;P1;durP2;ratioP2;P2;SDS_P1;SDS_P2;PMS_P1;PMS_P2;Temp;Humidity;BMP_temperature;BMP_pressure;BME280_temperature;BME280_humidity;BME280_pressure;Samples;Min_cycle;Max_cycle;Signal;HPM_P1;HPM_P2
2023/05/16 00:01:56;;;;;;;8.68;2.55;;;14.20;64.90;;;;;;5069506;28;20021;-71
2023/05/16 00:04:22;;;;;;;9.65;2.63;;;14.20;64.90;;;;;;5067512;28;20029;-71
2023/05/16 00:06:48;;;;;;;8.55;2.10;;;14.20;65.00;;;;;;5069815;28;20032;-71
2023/05/16 00:09:14;;;;;;;9.60;2.08;;;14.20;65.10;;;;;;5065507;28;20063;-72
2023/05/16 00:11:39;;;;;;;13.32;2.83;;;14.20;65.10;;;;;;5077107;28;20391;-71
2023/05/16 00:14:06;;;;;;;9.88;2.28;;;14.10;65.10;;;;;;5072044;28;20040;-71
2023/05/16 00:16:32;;;;;;;8.88;2.35;;;14.10;65.20;;;;;;5066250;28;20127;-72
2023/05/16 00:18:58;;;;;;;10.60;2.90;;;14.10;65.10;;;;;;5056366;28;20045;-72
2023/05/16 00:21:24;;;;;;;12.95;2.40;;;14.10;65.00;;;;;;5064425;28;20412;-72
2023/05/16 00:23:51;;;;;;;8.52;1.90;;;14.10;64.80;;;;;;5069651;28;20021;-71
2023/05/16 00:26:17;;;;;;;8.35;2.00;;;14.10;64.70;;;;;;5075877;28;20024;-72
2023/05/16 00:28:43;;;;;;;7.05;1.90;;;14.10;64.70;;;;;;5068893;28;20025;-71
2023/05/16 00:31:09;;;;;;;7.78;2.38;;;14.10;64.70;;;;;;5073200;28;20029;-72
2023/05/16 00:33:35;;;;;;;8.75;2.15;;;14.10;64.80;;;;;;5067057;28;20171;-71
2023/05/16 00:36:00;;;;;;;10.32;1.85;;;14.10;64.60;;;;;;5071400;28;20033;-71
2023/05/16 00:38:27;;;;;;;9.88;2.00;;;14.10;64.60;;;;;;5069158;28;20027;-71
2023/05/16 00:40:52;;;;;;;11.02;2.13;;;14.00;64.60;;;;;;5070674;28;20383;-72
2023/05/16 00:43:18;;;;;;;10.93;2.33;;;13.90;64.60;;;;;;5069709;28;20033;-72
2023/05/16 00:45:44;;;;;;;9.07;2.33;;;13.90;64.70;;;;;;5073799;28;20381;-72
2023/05/16 00:48:13;;;;;;;8.48;1.95;;;13.90;64.60;;;;;;5053187;28;20029;-72
2023/05/16 00:50:39;;;;;;;9.45;2.42;;;13.80;64.60;;;;;;5062311;28;20025;-71
2023/05/16 00:53:05;;;;;;;9.75;2.00;;;13.80;64.80;;;;;;5073762;28;20025;-71
2023/05/16 00:55:31;;;;;;;8.18;2.20;;;13.80;64.90;;;;;;5063088;28;20036;-72
2023/05/16 00:57:58;;;;;;;8.82;2.53;;;13.80;64.90;;;;;;5072565;28;20040;-72
2023/05/16 01:00:24;;;;;;;9.43;2.03;;;13.70;64.70;;;;;;5072269;28;20058;-71
2023/05/16 01:02:52;;;;;;;11.25;2.08;;;13.70;64.60;;;;;;5073747;28;20047;-71
2023/05/16 01:05:19;;;;;;;8.70;2.25;;;13.60;64.60;;;;;;5060452;28;20349;-71
2023/05/16 01:07:45;;;;;;;7.93;2.03;;;13.60;64.60;;;;;;5060088;28;20426;-71
2023/05/16 01:10:11;;;;;;;7.88;1.85;;;13.60;64.60;;;;;;5067660;28;20120;-72
2023/05/16 01:13:17;;;;;;;9.85;1.95;;;13.60;64.60;;;;;;5075501;28;20032;-72
2023/05/16 01:16:12;;;;;;;9.82;1.88;;;13.60;64.50;;;;;;5071520;28;20097;-71
2023/05/16 01:18:50;;;;;;;9.13;2.15;;;13.50;64.50;;;;;;5072934;28;20032;-71
2023/05/16 01:21:40;;;;;;;8.40;2.15;;;13.50;64.60;;;;;;5063642;28;20051;-71
2023/05/16 01:24:20;;;;;;;9.38;2.17;;;13.50;64.60;;;;;;5069394;28;20052;-71
2023/05/16 01:26:45;;;;;;;10.85;2.20;;;13.50;64.60;;;;;;5072052;28;20028;-71
2023/05/16 01:29:11;;;;;;;11.82;2.42;;;13.40;64.60;;;;;;5073743;28;20032;-71
2023/05/16 01:31:37;;;;;;;8.32;1.80;;;13.40;64.50;;;;;;5073056;28;20191;-71
2023/05/16 01:34:03;;;;;;;8.85;2.22;;;13.40;64.40;;;;;;5071282;28;20401;-71
2023/05/16 01:36:57;;;;;;;10.88;2.67;;;13.40;64.30;;;;;;5059481;28;20029;-71
2023/05/16 01:39:36;;;;;;;10.30;2.15;;;13.30;64.20;;;;;;5066705;28;20470;-72
2023/05/16 01:42:08;;;;;;;9.43;1.75;;;13.30;64.30;;;;;;5065035;28;20029;-71
2023/05/16 01:44:57;;;;;;;9.25;1.65;;;13.30;64.40;;;;;;5072874;28;20051;-71
2023/05/16 01:47:25;;;;;;;7.85;1.80;;;13.30;64.40;;;;;;5065084;28;20464;-71
2023/05/16 01:49:58;;;;;;;10.88;2.40;;;13.30;64.50;;;;;;5056930;28;20442;-72
2023/05/16 01:52:43;;;;;;;8.18;1.95;;;13.20;64.40;;;;;;5071661;28;20467;-72
2023/05/16 01:55:14;;;;;;;8.63;2.00;;;13.20;64.30;;;;;;5060273;28;20024;-71
2023/05/16 01:57:41;;;;;;;9.70;2.03;;;13.20;64.40;;;;;;5072101;28;20047;-71
2023/05/16 02:00:07;;;;;;;10.43;2.72;;;13.20;64.40;;;;;;5066472;28;20089;-71
2023/05/16 02:02:39;;;;;;;8.35;2.25;;;13.10;64.40;;;;;;5062862;28;20032;-71
2023/05/16 02:05:06;;;;;;;9.48;2.00;;;13.10;64.30;;;;;;5069095;28;20028;-71
2023/05/16 02:07:32;;;;;;;7.80;1.70;;;13.10;64.30;;;;;;5066286;28;20397;-70
2023/05/16 02:09:58;;;;;;;8.10;1.90;;;13.10;64.30;;;;;;5062358;28;20107;-71
2023/05/16 02:12:24;;;;;;;11.27;2.05;;;13.10;64.30;;;;;;5065931;28;20171;-72
2023/05/16 02:14:50;;;;;;;9.88;2.17;;;13.10;64.30;;;;;;5052163;28;20060;-71
2023/05/16 02:17:16;;;;;;;8.93;1.80;;;13.00;64.20;;;;;;5064956;28;20126;-71
2023/05/16 02:19:41;;;;;;;8.55;2.35;;;13.00;64.10;;;;;;5071224;28;20048;-71
2023/05/16 02:22:07;;;;;;;8.38;2.10;;;13.00;64.10;;;;;;5056101;28;20040;-72
2023/05/16 02:24:33;;;;;;;13.43;2.20;;;13.00;64.20;;;;;;5072048;28;20020;-71
2023/05/16 02:26:59;;;;;;;9.18;1.98;;;12.90;64.30;;;;;;5054506;28;20092;-71
2023/05/16 02:29:24;;;;;;;8.02;2.25;;;12.90;64.30;;;;;;5071791;28;20029;-71
2023/05/16 02:31:50;;;;;;;8.30;1.80;;;12.80;64.40;;;;;;5055548;28;20472;-70
2023/05/16 02:34:16;;;;;;;8.65;1.95;;;12.80;64.40;;;;;;5068238;28;20032;-72
2023/05/16 02:36:41;;;;;;;12.00;2.78;;;12.80;64.50;;;;;;5063618;28;20104;-71
2023/05/16 02:39:09;;;;;;;8.98;2.22;;;12.80;64.50;;;;;;5062900;28;20021;-70
2023/05/16 02:41:34;;;;;;;9.75;2.08;;;12.80;64.60;;;;;;5073454;28;20035;-70
2023/05/16 02:44:00;;;;;;;9.75;2.60;;;12.70;64.50;;;;;;5069727;28;20033;-71
2023/05/16 02:46:32;;;;;;;8.80;1.90;;;12.70;64.50;;;;;;5055338;28;20104;-70
2023/05/16 02:48:58;;;;;;;;;;;12.70;64.60;;;;;;5073926;28;20036;-71
2023/05/16 02:51:26;;;;;;;6.20;1.67;;;12.60;64.70;;;;;;5071774;28;20221;-71
2023/05/16 02:53:52;;;;;;;9.95;1.85;;;12.50;64.90;;;;;;5054914;28;20024;-71
2023/05/16 02:56:19;;;;;;;7.38;1.58;;;12.50;64.90;;;;;;5056028;28;20389;-71
2023/05/16 02:58:47;;;;;;;8.15;1.55;;;12.50;65.00;;;;;;5056308;28;20036;-72
2023/05/16 03:01:14;;;;;;;9.50;2.00;;;12.50;65.10;;;;;;5070785;28;20036;-70
2023/05/16 03:03:39;;;;;;;9.88;2.00;;;12.50;65.10;;;;;;5070150;28;20033;-70
2023/05/16 03:06:05;;;;;;;10.02;2.67;;;12.40;65.20;;;;;;5063877;28;20021;-70
2023/05/16 03:08:32;;;;;;;7.32;1.77;;;12.40;65.20;;;;;;5067375;28;20363;-70
2023/05/16 03:10:58;;;;;;;7.32;1.75;;;12.40;65.30;;;;;;5065723;28;20077;-71
2023/05/16 03:13:24;;;;;;;8.43;2.33;;;12.40;65.30;;;;;;5071936;28;20123;-71
2023/05/16 03:15:50;;;;;;;9.68;1.80;;;12.40;65.40;;;;;;5070000;28;20365;-71
2023/05/16 03:18:16;;;;;;;10.85;1.98;;;12.40;65.50;;;;;;5056193;28;20025;-72
2023/05/16 03:20:42;;;;;;;6.88;1.70;;;12.40;65.50;;;;;;5066080;28;20382;-72
2023/05/16 03:23:08;;;;;;;8.02;1.63;;;12.40;65.50;;;;;;5071073;28;20060;-72
2023/05/16 03:25:35;;;;;;;10.35;2.60;;;12.40;65.60;;;;;;5072165;28;20088;-71
2023/05/16 03:28:02;;;;;;;7.93;1.85;;;12.40;65.70;;;;;;5071956;28;20028;-70
2023/05/16 03:30:28;;;;;;;8.18;1.80;;;12.30;65.70;;;;;;5071970;28;20226;-70
2023/05/16 03:32:54;;;;;;;9.48;2.13;;;12.30;65.80;;;;;;5071975;28;20036;-71
2023/05/16 03:35:21;;;;;;;12.73;2.20;;;12.30;65.80;;;;;;5072832;28;20052;-71
2023/05/16 03:37:47;;;;;;;9.20;1.85;;;12.30;65.80;;;;;;5068470;28;20357;-71
2023/05/16 03:40:13;;;;;;;10.18;2.00;;;12.40;65.90;;;;;;5053777;28;20028;-71
2023/05/16 03:42:39;;;;;;;9.88;2.10;;;12.30;65.80;;;;;;5061408;28;20082;-71
2023/05/16 03:45:05;;;;;;;10.45;2.10;;;12.30;65.90;;;;;;5060492;28;20025;-71
2023/05/16 03:47:31;;;;;;;10.52;1.85;;;12.30;65.90;;;;;;5061270;28;20019;-71
2023/05/16 03:49:57;;;;;;;9.32;2.65;;;12.40;66.00;;;;;;5072890;28;20021;-72
2023/05/16 03:52:23;;;;;;;6.95;1.85;;;12.40;65.80;;;;;;5051336;28;20021;-71
2023/05/16 03:54:49;;;;;;;11.45;1.98;;;12.40;65.80;;;;;;5069279;28;20040;-70
2023/05/16 03:57:15;;;;;;;8.55;2.15;;;12.40;65.90;;;;;;5057001;28;20028;-72
2023/05/16 03:59:41;;;;;;;9.05;1.73;;;12.40;65.90;;;;;;5072125;28;20028;-72
2023/05/16 04:02:07;;;;;;;9.70;1.73;;;12.40;65.90;;;;;;5060141;28;20086;-71
2023/05/16 04:04:32;;;;;;;10.05;2.47;;;12.40;65.90;;;;;;5066608;28;20163;-71
2023/05/16 04:06:59;;;;;;;8.93;1.90;;;12.40;65.90;;;;;;5056405;28;20021;-72
2023/05/16 04:09:25;;;;;;;7.68;1.80;;;12.50;65.90;;;;;;5052268;28;20038;-72
2023/05/16 04:11:50;;;;;;;11.07;2.13;;;12.50;65.80;;;;;;5060443;28;20025;-70
2023/05/16 04:14:16;;;;;;;9.13;1.80;;;12.50;65.80;;;;;;5065791;28;20458;-72
2023/05/16 04:16:42;;;;;;;11.07;2.35;;;12.50;65.80;;;;;;5056351;28;20106;-72
2023/05/16 04:19:08;;;;;;;10.63;2.10;;;12.50;65.80;;;;;;5065345;28;20043;-71
2023/05/16 04:21:35;;;;;;;12.48;2.10;;;12.50;65.90;;;;;;5064346;28;20064;-71
2023/05/16 04:24:00;;;;;;;7.35;1.65;;;12.50;65.90;;;;;;5068342;28;20453;-71
2023/05/16 04:26:26;;;;;;;11.82;1.98;;;12.50;65.90;;;;;;5071001;28;20028;-70
2023/05/16 04:28:52;;;;;;;9.05;1.90;;;12.50;65.90;;;;;;5068139;28;20088;-71
2023/05/16 04:31:18;;;;;;;9.15;1.92;;;12.50;66.00;;;;;;5071369;28;20405;-70
2023/05/16 04:33:43;;;;;;;9.98;1.63;;;12.60;66.00;;;;;;5064614;28;20041;-71
2023/05/16 04:36:09;;;;;;;8.38;2.30;;;12.60;66.00;;;;;;5074217;28;20035;-70
2023/05/16 04:38:35;;;;;;;8.05;1.85;;;12.60;66.00;;;;;;5070860;28;20076;-71
2023/05/16 04:41:02;;;;;;;8.52;1.85;;;12.60;66.00;;;;;;5069261;28;20028;-70
2023/05/16 04:43:28;;;;;;;8.00;2.25;;;12.60;66.10;;;;;;5061850;28;20325;-71
2023/05/16 04:45:53;;;;;;;10.98;2.10;;;12.60;66.10;;;;;;5069697;28;20021;-70
2023/05/16 04:48:19;;;;;;;8.25;1.90;;;12.70;66.10;;;;;;5056029;28;20098;-70
2023/05/16 04:50:45;;;;;;;7.50;1.90;;;12.70;66.10;;;;;;5065646;28;20027;-70
2023/05/16 04:53:11;;;;;;;10.95;2.03;;;12.70;66.10;;;;;;5062728;28;20576;-70
2023/05/16 04:55:36;;;;;;;11.90;2.17;;;12.70;66.10;;;;;;5069431;28;20070;-70
2023/05/16 04:58:02;;;;;;;7.22;1.83;;;12.70;66.10;;;;;;5064729;28;20024;-70
2023/05/16 05:00:28;;;;;;;10.65;1.63;;;12.70;66.10;;;;;;5065539;28;20039;-70
2023/05/16 05:02:53;;;;;;;7.25;1.60;;;12.70;66.10;;;;;;5066247;28;20028;-70
2023/05/16 05:05:20;;;;;;;8.98;1.98;;;12.70;66.20;;;;;;5067756;28;20048;-70
2023/05/16 05:07:45;;;;;;;9.55;1.90;;;12.80;66.30;;;;;;5070197;28;20016;-70
2023/05/16 05:10:11;;;;;;;9.88;2.00;;;12.80;66.30;;;;;;5062714;28;20481;-70
2023/05/16 05:12:37;;;;;;;6.97;1.83;;;12.80;66.20;;;;;;5065704;28;20142;-71
2023/05/16 05:15:05;;;;;;;9.60;2.17;;;12.90;66.20;;;;;;5070161;28;20025;-71
2023/05/16 05:17:31;;;;;;;6.38;1.90;;;12.90;66.20;;;;;;5063456;28;20029;-71
2023/05/16 05:19:57;;;;;;;9.82;1.60;;;13.20;65.80;;;;;;5066813;28;20032;-71
2023/05/16 05:22:22;;;;;;;9.55;2.40;;;13.40;65.00;;;;;;5064301;28;20076;-71
2023/05/16 05:24:48;;;;;;;9.80;2.17;;;13.50;64.80;;;;;;5049138;28;20024;-71
2023/05/16 05:27:14;;;;;;;9.25;2.00;;;13.50;64.80;;;;;;5069415;28;20074;-71
2023/05/16 05:29:40;;;;;;;8.63;1.73;;;13.40;64.80;;;;;;5059600;28;20031;-69
2023/05/16 05:32:07;;;;;;;13.35;2.75;;;13.40;64.80;;;;;;5065608;28;20405;-71
2023/05/16 05:34:33;;;;;;;9.07;1.90;;;13.40;64.90;;;;;;5061262;28;20020;-70
2023/05/16 05:36:59;;;;;;;10.77;2.03;;;13.40;64.70;;;;;;5069203;28;20425;-68
2023/05/16 05:39:25;;;;;;;14.55;2.22;;;13.50;64.60;;;;;;5066513;28;20339;-71
2023/05/16 05:41:51;;;;;;;9.07;2.63;;;13.50;64.40;;;;;;5069407;28;20073;-70
2023/05/16 05:44:17;;;;;;;9.02;2.20;;;13.60;64.40;;;;;;5067308;28;20033;-71
2023/05/16 05:46:43;;;;;;;7.47;1.52;;;13.60;64.20;;;;;;5069489;28;20035;-71
2023/05/16 05:49:08;;;;;;;9.40;2.22;;;13.60;63.90;;;;;;5067415;28;20115;-63
2023/05/16 05:51:34;;;;;;;8.63;2.55;;;13.60;63.70;;;;;;5068590;28;20438;-62
2023/05/16 05:54:01;;;;;;;9.15;2.20;;;13.60;63.70;;;;;;5067776;28;20020;-63
2023/05/16 05:56:27;;;;;;;8.82;2.45;;;13.70;63.70;;;;;;5068400;28;20031;-63
2023/05/16 05:58:53;;;;;;;8.82;1.95;;;13.80;63.70;;;;;;5065870;28;21574;-63
2023/05/16 06:01:22;;;;;;;9.18;1.88;;;13.70;63.60;;;;;;5063084;28;20385;-62
2023/05/16 06:03:48;;;;;;;7.45;2.40;;;13.70;63.60;;;;;;5060826;28;20025;-62
2023/05/16 06:06:14;;;;;;;9.27;1.90;;;13.70;63.70;;;;;;5064981;28;20017;-63
2023/05/16 06:08:40;;;;;;;9.52;2.15;;;13.60;63.70;;;;;;5063444;28;20048;-62
2023/05/16 06:11:06;;;;;;;8.82;1.73;;;13.60;63.70;;;;;;5047548;28;20020;-63
2023/05/16 06:13:32;;;;;;;9.15;1.77;;;13.60;63.70;;;;;;5066175;28;20082;-62
2023/05/16 06:15:57;;;;;;;7.78;2.42;;;13.60;64.30;;;;;;5061271;28;20029;-63
2023/05/16 06:18:23;;;;;;;8.27;2.30;;;13.60;63.60;;;;;;5060948;28;20424;-63
2023/05/16 06:20:49;;;;;;;7.93;2.08;;;13.60;63.60;;;;;;5064608;28;20421;-62
2023/05/16 06:23:15;;;;;;;10.50;2.15;;;13.60;63.40;;;;;;5061184;28;20049;-63
2023/05/16 06:25:41;;;;;;;9.35;2.10;;;13.80;63.10;;;;;;5068536;28;20333;-64
2023/05/16 06:28:07;;;;;;;11.15;2.72;;;14.10;62.80;;;;;;5064392;28;20032;-63
2023/05/16 06:30:33;;;;;;;7.43;1.98;;;14.20;62.30;;;;;;5080899;28;20024;-63
2023/05/16 06:32:59;;;;;;;9.10;2.58;;;14.20;62.00;;;;;;5050368;28;20039;-63
2023/05/16 06:35:25;;;;;;;16.52;8.73;;;14.20;62.10;;;;;;5066232;28;20442;-64
2023/05/16 06:37:50;;;;;;;12.82;4.55;;;14.20;62.10;;;;;;5062174;28;20438;-65
2023/05/16 06:40:16;;;;;;;9.68;3.60;;;14.10;62.00;;;;;;5058983;28;20375;-64
2023/05/16 06:42:42;;;;;;;10.18;2.78;;;14.10;62.10;;;;;;5068256;28;20516;-64
2023/05/16 06:45:09;;;;;;;11.07;3.42;;;14.10;62.90;;;;;;5048835;28;20025;-64
2023/05/16 06:47:35;;;;;;;11.30;3.55;;;14.10;62.40;;;;;;5065652;28;20028;-63
2023/05/16 06:50:01;;;;;;;11.27;3.67;;;14.20;62.30;;;;;;5067337;28;20031;-63
2023/05/16 06:52:27;;;;;;;7.95;2.47;;;14.30;62.00;;;;;;5062584;28;20029;-62
2023/05/16 06:54:53;;;;;;;8.82;2.33;;;14.40;62.00;;;;;;5065883;28;20024;-63
2023/05/16 06:57:18;;;;;;;9.25;2.30;;;14.60;61.80;;;;;;5062265;28;20035;-63
2023/05/16 06:59:44;;;;;;;8.38;2.08;;;14.90;61.20;;;;;;5057124;28;20103;-63
2023/05/16 07:02:10;;;;;;;7.88;1.88;;;15.20;60.50;;;;;;5067452;28;20043;-64
2023/05/16 07:04:36;;;;;;;9.43;1.85;;;15.50;59.90;;;;;;5039841;28;20017;-63
2023/05/16 07:07:03;;;;;;;7.55;1.92;;;15.90;59.50;;;;;;5065744;28;20045;-62
2023/05/16 07:09:29;;;;;;;7.97;2.20;;;16.10;58.70;;;;;;5058340;28;20028;-63
2023/05/16 07:11:55;;;;;;;7.25;1.60;;;16.30;58.30;;;;;;5062129;28;20020;-64
2023/05/16 07:14:20;;;;;;;8.88;1.75;;;16.60;57.90;;;;;;5062741;28;20323;-63
2023/05/16 07:16:46;;;;;;;7.78;1.88;;;16.90;57.30;;;;;;5060317;28;20031;-64
2023/05/16 07:19:12;;;;;;;7.20;1.70;;;17.20;56.80;;;;;;5065746;28;20047;-62
2023/05/16 07:21:38;;;;;;;7.45;1.48;;;17.30;56.40;;;;;;5063540;28;20025;-64
2023/05/16 07:24:04;;;;;;;6.82;1.58;;;17.40;56.20;;;;;;5057585;28;20377;-64
2023/05/16 07:26:30;;;;;;;6.60;1.80;;;17.60;55.70;;;;;;5063414;28;20374;-63
2023/05/16 07:28:56;;;;;;;7.85;1.67;;;17.90;55.20;;;;;;5066035;28;20017;-63
2023/05/16 07:31:23;;;;;;;6.93;1.63;;;17.80;54.80;;;;;;5061087;28;20025;-63
2023/05/16 07:33:49;;;;;;;8.35;1.98;;;17.60;54.90;;;;;;5064690;28;20418;-63
2023/05/16 07:36:15;;;;;;;6.40;1.63;;;17.30;54.80;;;;;;5063392;28;20071;-63
2023/05/16 07:38:41;;;;;;;5.53;1.50;;;17.00;55.10;;;;;;5063744;28;20029;-63
2023/05/16 07:41:07;;;;;;;5.50;1.33;;;16.80;55.10;;;;;;5065055;28;20040;-63
2023/05/16 07:43:36;;;;;;;3.15;1.15;;;16.90;55.20;;;;;;5064674;28;20039;-63
2023/05/16 07:46:02;;;;;;;4.65;1.00;;;17.10;54.30;;;;;;5060771;28;20406;-65
2023/05/16 07:48:28;;;;;;;4.75;1.00;;;17.10;54.00;;;;;;5062828;28;20029;-63
2023/05/16 07:50:54;;;;;;;8.38;1.60;;;17.00;54.00;;;;;;5064893;28;20040;-62
2023/05/16 07:53:20;;;;;;;6.32;1.30;;;16.80;53.90;;;;;;5060595;28;20049;-63
2023/05/16 07:55:47;;;;;;;7.75;1.30;;;16.60;54.20;;;;;;5066775;28;20335;-62
2023/05/16 07:58:13;;;;;;;6.05;1.08;;;16.40;54.30;;;;;;5063211;28;20142;-63
2023/05/16 08:00:39;;;;;;;4.07;1.15;;;16.30;54.70;;;;;;5066643;28;20042;-63
2023/05/16 08:03:05;;;;;;;6.15;1.63;;;16.20;54.70;;;;;;5055438;28;20073;-62
2023/05/16 08:05:31;;;;;;;4.65;1.10;;;16.10;54.70;;;;;;5065695;28;20021;-63
2023/05/16 08:07:57;;;;;;;4.00;1.10;;;16.10;54.40;;;;;;5065343;28;20020;-63
2023/05/16 08:10:23;;;;;;;5.50;0.95;;;15.90;54.30;;;;;;5065628;28;20020;-64
2023/05/16 08:12:49;;;;;;;4.47;1.15;;;16.20;54.40;;;;;;5071283;28;20028;-63
2023/05/16 08:15:15;;;;;;;5.53;1.23;;;16.60;54.00;;;;;;5069158;28;20032;-63
2023/05/16 08:17:41;;;;;;;6.53;1.17;;;17.10;52.90;;;;;;5067007;28;20021;-64
2023/05/16 08:20:07;;;;;;;3.58;1.05;;;17.60;52.00;;;;;;5065124;28;20086;-64
2023/05/16 08:22:33;;;;;;;5.68;1.60;;;18.10;51.60;;;;;;5066484;28;20188;-63
2023/05/16 08:24:59;;;;;;;5.80;1.27;;;18.60;50.90;;;;;;5066193;28;20021;-63
2023/05/16 08:27:28;;;;;;;2.92;0.80;;;19.00;50.10;;;;;;5068902;28;20425;-63
2023/05/16 08:29:54;;;;;;;5.68;1.05;;;19.20;49.50;;;;;;5066097;28;20028;-62
2023/05/16 08:32:22;;;;;;;5.82;1.55;;;19.00;49.40;;;;;;5057034;28;20027;-63
2023/05/16 08:34:47;;;;;;;2.85;0.95;;;18.60;49.80;;;;;;5056729;28;21016;-63
2023/05/16 08:37:13;;;;;;;3.75;0.82;;;18.20;50.30;;;;;;5059517;28;20020;-63
2023/05/16 08:39:39;;;;;;;4.63;1.10;;;17.80;50.90;;;;;;5063323;28;20338;-64
2023/05/16 08:42:05;;;;;;;4.82;0.90;;;17.60;51.30;;;;;;5073573;28;20029;-63
2023/05/16 08:44:31;;;;;;;5.70;1.05;;;17.50;51.50;;;;;;5061580;28;20044;-64
2023/05/16 08:47:17;;;;;;;4.38;1.10;;;17.50;51.40;;;;;;5068532;28;20099;-64
2023/05/16 08:49:46;;;;;;;4.57;1.38;;;18.00;51.30;;;;;;5075714;28;20471;-64
2023/05/16 08:52:13;;;;;;;2.75;0.90;;;18.40;50.40;;;;;;5076401;28;20024;-64
2023/05/16 08:54:39;;;;;;;3.83;0.90;;;18.60;49.80;;;;;;5075430;28;20039;-64
2023/05/16 08:57:07;;;;;;;4.65;1.35;;;18.50;49.90;;;;;;5076745;28;20100;-64
2023/05/16 08:59:34;;;;;;;1.98;0.82;;;18.20;50.10;;;;;;5074529;28;20021;-64
2023/05/16 09:01:59;;;;;;;2.78;0.98;;;18.00;50.50;;;;;;5076080;28;20115;-64
2023/05/16 09:04:26;;;;;;;4.68;0.90;;;18.10;50.50;;;;;;5058439;28;20111;-64
2023/05/16 09:06:52;;;;;;;2.58;0.80;;;18.50;49.80;;;;;;5076147;28;20029;-64
2023/05/16 09:09:18;;;;;;;3.22;0.90;;;18.80;49.40;;;;;;5075264;28;20360;-64
2023/05/16 09:11:44;;;;;;;4.13;1.08;;;19.10;48.60;;;;;;5076071;28;20033;-64
2023/05/16 09:14:10;;;;;;;3.47;1.10;;;19.40;47.80;;;;;;5075033;28;20042;-64
2023/05/16 09:16:36;;;;;;;4.10;0.98;;;19.60;47.30;;;;;;5074639;28;20107;-64
2023/05/16 09:19:03;;;;;;;2.10;0.63;;;19.90;46.80;;;;;;5066510;28;20120;-64
2023/05/16 09:21:34;;;;;;;5.35;1.10;;;20.20;46.40;;;;;;5074655;28;20055;-64
2023/05/16 09:24:04;;;;;;;5.15;1.00;;;20.00;46.10;;;;;;5075643;28;20381;-64
2023/05/16 09:26:32;;;;;;;3.95;1.10;;;19.60;46.50;;;;;;5074855;28;20448;-64
2023/05/16 09:28:58;;;;;;;3.85;0.82;;;19.20;47.00;;;;;;5066811;28;20039;-64
2023/05/16 09:31:25;;;;;;;4.85;1.05;;;18.90;47.60;;;;;;5074959;28;20029;-64
2023/05/16 09:33:52;;;;;;;5.30;1.20;;;18.60;48.00;;;;;;5075756;28;20442;-64
2023/05/16 09:36:18;;;;;;;5.07;0.90;;;18.30;48.10;;;;;;5074608;28;20302;-64
2023/05/16 09:38:44;;;;;;;5.50;1.05;;;18.10;48.30;;;;;;5073945;28;20056;-64
2023/05/16 09:41:11;;;;;;;1.73;0.68;;;18.20;48.40;;;;;;5076104;28;20322;-64
2023/05/16 09:43:42;;;;;;;4.30;0.90;;;18.20;48.30;;;;;;5074567;28;20043;-64
2023/05/16 09:46:12;;;;;;;3.92;1.00;;;18.50;48.10;;;;;;5075390;28;20012;-64
2023/05/16 09:48:41;;;;;;;6.10;1.13;;;19.10;47.70;;;;;;5055985;28;20041;-64
2023/05/16 09:51:07;;;;;;;2.58;0.90;;;19.50;47.30;;;;;;5071420;28;20270;-64
2023/05/16 09:53:33;;;;;;;4.00;0.90;;;20.00;46.80;;;;;;5071585;28;20029;-64
2023/05/16 09:56:01;;;;;;;4.63;1.00;;;20.30;46.10;;;;;;5072796;28;20025;-64
2023/05/16 09:58:31;;;;;;;5.05;1.30;;;20.60;45.20;;;;;;5065924;28;20085;-65
2023/05/16 10:00:58;;;;;;;6.32;1.10;;;20.80;45.00;;;;;;5067189;28;20094;-64
2023/05/16 10:03:27;;;;;;;2.70;0.88;;;20.90;44.80;;;;;;5064313;28;20029;-64
2023/05/16 10:05:54;;;;;;;3.40;0.90;;;20.50;45.00;;;;;;5057450;28;20050;-64
2023/05/16 10:08:21;;;;;;;5.00;1.05;;;20.20;45.40;;;;;;5066316;28;20090;-64
2023/05/16 10:10:52;;;;;;;4.72;0.98;;;19.80;45.40;;;;;;5066058;28;20400;-67
2023/05/16 10:13:23;;;;;;;3.70;0.90;;;19.40;45.80;;;;;;5054384;28;20032;-66
2023/05/16 10:15:50;;;;;;;2.72;0.88;;;19.10;46.30;;;;;;5059230;28;20362;-66
2023/05/16 10:18:18;;;;;;;4.22;1.17;;;19.10;46.60;;;;;;5056337;28;20039;-66
2023/05/16 10:20:47;;;;;;;4.15;0.93;;;19.50;46.00;;;;;;5064370;28;20166;-66
2023/05/16 10:23:19;;;;;;;5.90;1.20;;;19.80;45.60;;;;;;5065860;28;20040;-66
2023/05/16 10:25:46;;;;;;;;;;;19.70;45.60;;;;;;5082079;28;20035;-66
2023/05/16 10:28:13;;;;;;;5.32;1.15;;;19.60;46.10;;;;;;5041141;28;19963;-66
2023/05/16 10:30:43;;;;;;;6.38;1.20;;;19.40;46.30;;;;;;5061175;28;20445;-66
2023/05/16 10:33:11;;;;;;;4.30;1.15;;;19.60;46.30;;;;;;5078050;28;20078;-66
2023/05/16 10:35:38;;;;;;;4.72;1.15;;;20.00;45.70;;;;;;5058287;28;20128;-66
2023/05/16 10:38:05;;;;;;;4.40;1.00;;;20.20;44.90;;;;;;5067034;28;20025;-67
2023/05/16 10:40:32;;;;;;;5.68;0.93;;;20.00;44.70;;;;;;5059946;28;20398;-66
2023/05/16 10:43:03;;;;;;;6.57;1.33;;;19.80;44.80;;;;;;5059392;28;20037;-67
2023/05/16 10:45:29;;;;;;;1.50;0.63;;;19.50;45.20;;;;;;5069751;28;20036;-65
2023/05/16 10:48:03;;;;;;;5.57;1.17;;;19.30;45.50;;;;;;5056456;28;20037;-66
2023/05/16 10:50:42;;;;;;;2.67;0.85;;;19.50;45.00;;;;;;5060853;28;20112;-66
2023/05/16 10:53:15;;;;;;;6.22;1.58;;;19.60;44.40;;;;;;5058416;28;20040;-66
2023/05/16 10:56:00;;;;;;;4.20;1.23;;;20.00;43.90;;;;;;5059663;28;20021;-65
2023/05/16 10:58:31;;;;;;;4.72;1.48;;;20.30;43.40;;;;;;5069425;28;20028;-66
2023/05/16 11:01:16;;;;;;;6.65;1.10;;;20.30;43.30;;;;;;5069492;28;20078;-65
2023/05/16 11:04:03;;;;;;;5.25;1.15;;;19.90;43.40;;;;;;5063318;28;20036;-65
2023/05/16 11:06:35;;;;;;;6.28;1.15;;;19.50;44.00;;;;;;5072951;28;20040;-65
2023/05/16 11:09:05;;;;;;;4.45;1.05;;;19.30;44.70;;;;;;5060807;28;20017;-65
2023/05/16 11:11:47;;;;;;;8.45;1.10;;;19.40;44.80;;;;;;5070104;28;20083;-65
2023/05/16 11:14:32;;;;;;;2.42;0.77;;;19.70;44.50;;;;;;5058697;28;20348;-65
2023/05/16 11:17:13;;;;;;;1.77;0.55;;;20.10;43.80;;;;;;5054071;28;20033;-66
2023/05/16 11:19:51;;;;;;;4.30;0.98;;;20.20;43.60;;;;;;5064961;28;20032;-65
2023/05/16 11:22:21;;;;;;;3.75;1.05;;;20.10;42.80;;;;;;5060692;28;20047;-65
2023/05/16 11:25:00;;;;;;;4.38;1.33;;;20.20;42.70;;;;;;5072168;28;20021;-65
2023/05/16 11:27:27;;;;;;;3.40;1.10;;;20.40;42.00;;;;;;5057424;28;20013;-64
2023/05/16 11:29:57;;;;;;;4.65;1.15;;;20.50;41.60;;;;;;5069277;28;20064;-66
2023/05/16 11:32:23;;;;;;;6.53;1.25;;;20.70;41.30;;;;;;5078406;28;20052;-66
2023/05/16 11:34:50;;;;;;;4.28;1.30;;;21.00;41.20;;;;;;5069224;28;20093;-65
2023/05/16 11:37:18;;;;;;;5.97;1.20;;;21.20;40.90;;;;;;5067219;28;20021;-65
2023/05/16 11:39:44;;;;;;;4.53;1.00;;;21.20;40.80;;;;;;5054169;28;20154;-65
2023/05/16 11:42:10;;;;;;;4.25;1.10;;;21.00;40.90;;;;;;5071646;28;20501;-65
2023/05/16 11:44:36;;;;;;;2.50;1.10;;;20.80;41.30;;;;;;5068563;28;20028;-65
2023/05/16 11:47:02;;;;;;;5.75;1.30;;;20.50;41.60;;;;;;5073446;28;20043;-65
2023/05/16 11:49:29;;;;;;;5.20;1.30;;;20.20;41.60;;;;;;5070149;28;20025;-66
2023/05/16 11:51:56;;;;;;;6.03;1.45;;;19.90;41.80;;;;;;5072285;28;20024;-65
2023/05/16 11:54:23;;;;;;;4.68;1.50;;;19.80;41.80;;;;;;5071103;28;20028;-65
2023/05/16 11:56:50;;;;;;;5.03;1.15;;;19.80;41.80;;;;;;5069679;28;20197;-64
2023/05/16 11:59:19;;;;;;;3.05;1.10;;;19.90;41.60;;;;;;5070032;28;20093;-64
2023/05/16 12:01:47;;;;;;;4.35;1.05;;;19.90;41.50;;;;;;5070749;28;20322;-65
2023/05/16 12:04:15;;;;;;;4.43;1.40;;;19.90;41.50;;;;;;5054789;28;20373;-64
2023/05/16 12:06:46;;;;;;;2.92;1.10;;;19.90;41.60;;;;;;5074067;28;20039;-65
2023/05/16 12:09:13;;;;;;;6.10;1.27;;;19.80;41.80;;;;;;5073990;28;20025;-65
2023/05/16 12:11:42;;;;;;;5.55;1.20;;;19.70;42.00;;;;;;5071299;28;20395;-64
2023/05/16 12:14:11;;;;;;;5.07;1.15;;;19.60;42.10;;;;;;5074390;28;20446;-65
2023/05/16 12:16:41;;;;;;;3.95;1.10;;;19.70;42.10;;;;;;5072596;28;20086;-66
2023/05/16 12:19:07;;;;;;;5.72;1.30;;;19.60;42.00;;;;;;5068739;28;20060;-66
2023/05/16 12:21:33;;;;;;;5.18;1.27;;;19.50;42.10;;;;;;5072173;28;20036;-66
2023/05/16 12:24:00;;;;;;;3.17;1.05;;;19.40;42.10;;;;;;5070142;28;20080;-66
2023/05/16 12:26:29;;;;;;;5.82;1.45;;;19.40;42.10;;;;;;5070951;28;20025;-66
2023/05/16 12:29:04;;;;;;;6.45;1.50;;;19.40;42.30;;;;;;5058644;28;20021;-64
2023/05/16 12:31:40;;;;;;;7.35;1.50;;;19.30;42.00;;;;;;5054870;28;20447;-64
2023/05/16 12:34:20;;;;;;;3.90;1.15;;;19.30;42.10;;;;;;5069297;28;20028;-64
2023/05/16 12:36:50;;;;;;;3.47;1.05;;;19.30;42.10;;;;;;5070955;28;20043;-64
2023/05/16 12:39:16;;;;;;;4.18;1.13;;;19.30;42.20;;;;;;5060618;28;20025;-64
2023/05/16 12:41:42;;;;;;;3.70;1.02;;;19.10;42.30;;;;;;5068967;28;20029;-64
2023/05/16 12:44:18;;;;;;;4.32;1.40;;;19.10;42.50;;;;;;5062967;28;20040;-64
2023/05/16 12:46:45;;;;;;;4.32;1.10;;;19.00;42.70;;;;;;5066477;28;20056;-64
2023/05/16 12:49:12;;;;;;;6.80;1.85;;;18.90;42.80;;;;;;5066949;28;20171;-64